Date,TemperatureHighF,TemperatureAvgF,TemperatureLowF,DewpointHighF,DewpointAvgF,DewpointLowF,HumidityHigh,HumidityAvg,HumidityLow,PressureMaxIn,PressureMinIn,WindSpeedMaxMPH,WindSpeedAvgMPH,GustSpeedMaxMPH,PrecipitationSumIn
2013-1-1,78,71,63,63,61,59,89,71,59,30.23,30.09,13,4,25,0.00
2013-3-24,87,79,71,72,70,66,97,77,59,29.81,29.71,19,5,24,0.40
2013-3-25,77,72,64,73,60,39,98,69,34,30.02,29.78,11,3,14,0.40
2013-3-26,65,59,52,44,38,32,65,47,31,30.25,30.02,16,6,22,0.00
2013-3-27,67,56,46,49,42,33,80,60,35,30.29,30.21,12,4,15,0.00
2013-3-28,71,60,49,51,46,38,85,63,32,30.31,30.21,13,3,15,0.00
2013-3-29,74,65,54,55,52,48,83,63,45,30.33,30.24,14,3,19,0.00
2013-3-30,76,66,56,59,54,50,96,67,41,30.30,30.20,9,2,17,0.00
2013-3-31,80,70,58,67,62,56,95,77,57,30.22,30.08,14,4,18,0.00
2013-4-1,86,76,68,72,66,61,96,74,45,30.09,29.97,15,3,18,0.00
2013-4-2,83,73,66,69,64,-100,98,79,56,30.11,30.02,10,-8,13,0.00
2013-4-3,83,77,70,70,69,67,91,77,62,30.10,30.03,11,5,19,0.00
2013-4-4,84,74,68,73,70,67,96,86,69,30.09,29.94,11,4,23,0.42
2013-4-5,71,68,66,70,66,63,97,93,86,30.04,29.86,11,3,18,0.11
2013-4-6,77,68,58,65,62,57,95,80,60,30.12,29.95,16,5,18,0.01
2013-4-7,78,74,69,65,63,61,79,70,60,30.18,30.06,12,4,18,0.01
2013-4-8,82,71,62,66,63,61,97,78,51,30.16,30.08,11,2,14,0.00
2013-4-9,80,75,70,69,67,66,86,77,65,30.19,30.09,13,4,19,0.00
2013-4-10,85,78,72,73,71,68,87,80,64,30.14,30.03,16,5,19,0.00
2013-4-11,83,78,75,74,72,71,89,82,71,30.05,29.93,19,8,24,0.00
2013-4-12,86,79,75,78,75,72,95,86,72,29.98,29.89,18,6,25,0.48
2013-4-13,85,76,72,76,73,68,97,89,73,30.00,29.91,9,2,16,0.61
2013-4-14,86,79,72,76,74,70,98,85,67,30.00,29.93,14,4,19,0.61
2013-4-15,91,77,70,77,72,68,98,86,60,30.09,29.97,14,3,22,1.13
2013-4-16,85,77,71,77,73,70,98,86,71,30.16,30.06,11,3,17,0.01
2013-4-17,83,78,72,71,68,64,90,74,54,30.15,30.06,10,3,14,0.01
2013-4-18,86,79,74,74,72,67,88,77,64,30.10,30.01,15,4,18,0.00
2013-4-19,86,81,76,74,73,71,90,77,60,30.08,30.00,21,7,23,0.01
2013-4-20,90,78,72,77,73,70,96,86,56,30.12,30.01,14,4,20,0.01
2013-4-21,85,78,71,75,72,70,97,84,67,30.13,30.02,11,3,17,0.00
2013-4-22,84,75,72,73,70,68,94,84,65,30.08,29.97,14,3,19,0.00
2013-4-23,82,75,67,69,66,61,97,76,58,30.12,29.99,19,5,21,0.00
2013-4-24,83,76,68,66,64,61,89,67,55,30.17,30.07,12,3,16,0.00
2013-4-25,83,76,69,66,63,61,85,66,52,30.24,30.11,11,3,18,0.00
2013-4-26,83,75,66,67,65,62,93,72,57,30.26,30.15,13,3,19,0.00
2013-4-27,82,77,72,68,65,62,77,67,53,30.25,30.12,14,5,22,0.00
2013-4-28,83,77,72,66,64,61,77,66,49,30.16,30.03,15,5,18,0.00
2013-4-29,84,78,72,72,68,64,84,74,58,30.07,29.97,15,4,17,0.00
2013-4-30,82,74,69,74,71,68,98,89,70,30.03,29.96,10,2,18,2.00
2013-5-1,85,74,69,74,70,68,99,90,66,30.03,29.96,10,2,17,0.32
2013-5-2,78,72,69,73,70,68,98,95,83,29.99,29.84,15,3,19,2.41
2013-5-3,88,73,68,72,68,-100,98,86,58,29.86,29.71,7,-8,18,0.54
2013-5-4,85,75,68,71,69,67,99,82,57,29.83,29.72,9,2,14,0.55
2013-5-5,80,73,68,68,63,54,96,73,42,29.96,29.79,11,3,15,0.00
2013-5-6,82,72,60,68,62,54,95,72,56,30.04,29.95,7,1,10,0.00
2013-5-7,82,72,62,64,60,56,84,69,48,30.09,30.01,7,3,13,0.00
2013-5-8,84,73,61,67,62,57,96,70,41,30.17,30.07,7,1,13,0.00
2013-5-9,88,77,67,74,68,62,88,75,53,30.17,30.09,11,2,14,0.00
2013-5-10,89,81,74,75,73,69,93,78,54,30.17,30.05,11,3,17,0.00
2013-5-11,88,78,72,77,72,-100,98,84,64,30.11,30.00,15,-7,20,0.40
2013-5-12,89,76,71,76,70,-100,98,86,59,30.09,29.97,10,-8,14,0.70
2013-5-13,85,76,71,73,68,-100,98,79,57,30.12,30.02,7,-8,13,0.71
2013-5-14,81,75,70,68,61,57,86,63,48,30.21,30.10,14,4,17,0.00
2013-5-15,83,76,67,67,62,56,82,64,50,30.23,30.13,10,3,16,0.00
2013-5-16,84,76,65,67,64,61,93,67,53,30.15,30.08,10,2,13,0.00
2013-5-17,84,76,70,74,71,65,94,82,70,30.12,30.05,10,3,18,0.40
2013-5-18,87,79,72,77,72,70,96,82,66,30.14,30.07,11,3,18,0.41
2013-5-19,87,80,72,72,71,69,94,75,57,30.14,30.04,11,2,14,0.41
2013-5-20,80,76,67,74,72,66,97,89,81,30.13,30.02,18,2,20,2.19
2013-5-21,84,76,69,75,72,68,98,87,68,30.09,29.97,10,3,18,0.24
2013-5-22,85,78,74,75,72,69,96,84,68,30.01,29.93,10,2,16,0.25
2013-5-23,90,80,74,76,73,66,98,80,48,30.04,29.94,10,3,13,0.00
2013-5-24,90,82,75,77,73,63,97,75,41,30.10,29.98,11,2,17,0.00
2013-5-25,85,80,75,75,69,65,96,72,55,30.20,30.08,13,4,20,0.09
2013-5-26,84,78,70,70,66,62,88,67,54,30.21,30.14,14,4,18,0.00
2013-5-27,84,79,74,73,70,64,91,75,66,30.20,30.11,16,5,24,0.09
2013-5-28,83,78,75,75,73,72,92,83,70,30.16,30.08,16,6,22,0.02
2013-5-29,81,76,71,75,72,70,98,90,75,30.13,30.06,15,5,23,0.61
2013-5-30,82,78,73,75,73,69,95,85,73,30.11,30.04,19,7,28,0.53
2013-5-31,84,78,74,76,74,72,96,87,75,30.10,30.04,13,6,26,0.20
2013-6-1,84,78,74,77,75,73,98,91,77,30.07,30.00,13,2,15,0.24
2013-6-2,90,79,72,77,74,72,99,86,64,30.04,29.96,8,2,18,0.02
2013-6-3,85,77,73,78,74,73,98,91,72,30.07,29.95,7,1,12,0.70
2013-6-4,85,78,74,78,75,73,99,90,72,30.09,29.99,5,1,9,0.07
2013-6-5,84,81,78,78,77,75,92,88,80,30.05,29.93,10,3,13,0.04
2013-6-6,87,79,73,80,76,72,98,90,75,29.94,29.80,18,6,28,0.92
2013-6-7,88,77,73,78,74,72,98,91,71,30.02,29.87,14,3,18,0.68
2013-6-8,85,76,74,79,72,-100,99,91,80,30.16,30.00,9,-19,16,0.96
2013-6-9,88,80,74,79,74,-100,98,82,66,30.16,30.07,14,-6,16,0.01
2013-6-10,90,84,79,78,77,75,90,80,67,30.13,30.04,9,4,16,0.01
2013-6-11,89,82,79,79,77,75,93,84,64,30.12,30.04,7,2,15,0.00
2013-6-12,85,79,76,78,76,74,97,90,71,30.11,30.06,5,1,12,0.07
2013-6-13,88,80,75,78,75,72,99,86,67,30.08,29.97,5,1,12,0.06
2013-6-14,90,80,75,77,74,72,98,82,58,30.00,29.91,9,2,18,0.04
2013-6-15,93,82,75,77,75,72,98,81,58,30.09,29.95,7,1,14,0.04
2013-6-16,93,84,76,78,76,74,96,78,54,30.13,30.05,9,2,14,0.00
2013-6-17,92,85,78,78,77,75,95,78,58,30.11,30.04,10,3,17,0.00
2013-6-18,92,84,78,78,76,74,97,78,57,30.10,30.02,10,3,18,0.00
2013-6-19,92,84,78,79,76,74,94,80,61,30.08,30.02,11,3,16,0.04
2013-6-20,93,82,75,77,74,70,93,77,54,30.12,30.06,10,2,17,0.04
2013-6-21,92,83,76,77,75,73,97,78,57,30.14,30.07,14,2,14,0.00
2013-6-22,91,84,76,76,74,72,94,74,55,30.14,30.07,11,3,16,0.00
2013-6-23,90,83,79,78,75,73,90,77,61,30.16,30.09,11,4,19,0.13
2013-6-24,90,84,80,76,74,73,82,72,57,30.20,30.12,13,4,15,0.00
2013-6-25,90,84,80,78,76,73,87,77,64,30.17,30.08,13,4,19,0.00
2013-6-26,91,84,80,77,76,74,88,76,59,30.11,30.04,11,4,18,0.00
2013-6-27,88,81,77,79,76,69,96,83,69,30.10,29.99,10,1,12,0.00
2013-6-28,92,81,73,81,75,71,98,85,56,30.03,29.89,9,2,14,1.96
2013-6-29,91,80,74,78,75,73,99,88,59,29.95,29.84,11,2,23,0.85
2013-6-30,89,78,74,79,75,72,98,90,65,29.98,29.88,11,2,23,0.93
2013-7-1,89,81,75,78,76,73,98,87,67,30.07,29.95,17,4,24,0.08
2013-7-2,88,82,77,79,77,73,96,84,71,30.14,30.01,16,3,21,0.08
2013-7-3,89,82,77,79,76,74,94,84,70,30.16,30.09,20,5,24,0.41
2013-7-4,89,83,78,79,77,75,92,80,68,30.19,30.11,14,5,24,0.42
2013-7-5,86,81,75,79,76,72,96,85,74,30.18,30.09,13,4,23,0.76
2013-7-6,89,83,80,77,75,74,85,78,64,30.16,30.07,14,5,21,0.76
2013-7-7,89,84,79,77,76,74,88,77,64,30.14,30.06,12,4,21,0.00
2013-7-8,90,82,78,76,72,-100,91,75,60,30.18,30.11,9,-10,16,0.00
2013-7-9,86,80,72,76,74,70,94,81,65,30.19,30.08,10,2,22,0.54
2013-7-10,87,79,72,76,74,70,97,85,67,30.12,30.03,8,2,15,0.76
2013-7-11,92,81,76,78,76,71,97,83,57,30.08,29.98,13,2,15,0.02
2013-7-12,91,79,75,78,75,73,98,88,59,30.00,29.93,11,1,15,0.10
2013-7-13,87,76,73,78,74,72,98,94,73,30.06,29.95,10,1,19,1.03
2013-7-14,90,78,73,77,74,72,98,88,61,30.13,30.02,11,2,16,0.10
2013-7-15,89,80,73,77,74,72,98,84,63,30.13,30.05,10,2,14,0.25
2013-7-16,84,76,73,76,71,-100,98,87,71,30.20,30.09,15,-8,28,1.12
2013-7-17,82,78,75,76,74,73,95,88,78,30.18,30.09,9,2,15,0.02
2013-7-18,88,77,72,77,72,-100,98,88,68,30.16,30.10,15,-8,15,0.36
2013-7-19,89,81,74,79,76,73,98,87,67,30.16,30.08,11,3,18,0.37
2013-7-20,86,82,76,79,77,73,96,86,75,30.15,30.07,13,3,19,0.01
2013-7-21,90,80,76,81,76,73,97,89,69,30.20,30.08,10,2,17,0.26
2013-7-22,92,83,76,79,76,74,98,81,58,30.18,30.10,9,2,13,0.27
2013-7-23,95,84,77,79,76,70,95,78,47,30.14,30.00,7,2,13,0.02
2013-7-24,92,84,76,78,74,66,96,76,44,30.05,29.94,10,2,12,0.05
2013-7-25,91,83,76,78,76,74,94,79,61,30.05,29.95,10,2,13,0.00
2013-7-26,89,81,78,78,74,-100,91,82,64,30.06,29.96,8,-9,15,0.01
2013-7-27,92,79,75,80,76,73,98,91,65,30.04,29.97,8,1,28,3.45
2013-7-28,86,79,72,79,76,71,98,91,77,30.10,29.98,9,1,19,0.04
2013-7-29,90,81,75,79,76,74,98,87,66,30.17,30.06,9,2,12,0.04
2013-7-30,92,84,76,79,78,75,95,82,63,30.20,30.11,10,2,15,0.01
2013-7-31,91,84,78,79,77,74,95,78,58,30.15,30.04,16,3,19,0.00
2013-8-1,91,84,77,77,75,74,92,76,58,30.09,29.98,14,3,18,0.00
2013-8-2,86,80,75,78,75,73,95,86,68,30.08,29.96,11,1,11,0.11
2013-8-3,85,78,73,79,75,71,98,92,79,30.16,30.06,19,1,27,0.20
2013-8-4,94,79,73,79,74,-100,98,88,60,30.14,30.01,12,-10,23,0.22
2013-8-5,91,80,76,81,76,73,98,89,63,30.07,29.99,9,1,16,0.02
2013-8-6,93,82,76,80,76,74,97,85,61,30.01,29.93,10,1,11,0.03
2013-8-7,90,83,77,80,77,75,97,82,65,30.02,29.94,13,3,18,0.02
2013-8-8,91,85,81,79,77,75,87,76,60,30.05,29.97,12,4,19,0.01
2013-8-9,90,84,80,78,76,72,84,76,62,30.11,29.99,15,4,22,0.01
2013-8-10,92,85,80,79,77,75,89,77,64,30.15,30.07,11,4,17,0.00
2013-8-11,92,85,81,79,77,76,86,76,62,30.17,30.10,10,3,14,0.00
2013-8-12,91,84,76,78,76,74,95,78,60,30.14,30.05,10,2,16,0.00
2013-8-13,93,85,77,78,76,73,96,77,53,30.08,29.99,11,2,16,0.00
2013-8-14,93,84,76,78,76,73,96,78,56,30.06,29.97,12,2,15,0.00
2013-8-15,90,82,76,78,76,73,93,82,64,30.09,30.00,11,3,14,0.00
2013-8-16,92,84,76,81,78,73,97,82,62,30.09,30.01,10,2,15,0.53
2013-8-17,92,86,81,80,79,77,91,79,63,30.11,30.04,10,3,18,0.00
2013-8-18,91,85,79,80,78,76,92,80,68,30.12,30.03,10,4,22,0.18
2013-8-19,91,85,81,79,78,75,90,78,61,30.11,30.00,11,4,18,0.00
2013-8-20,91,85,79,79,77,74,95,78,60,30.10,30.02,14,3,17,0.12
2013-8-21,89,83,77,81,78,75,97,86,68,30.11,30.03,16,4,21,0.02
2013-8-22,91,85,81,80,78,76,90,79,64,30.10,30.00,10,3,18,0.04
2013-8-23,92,84,78,79,77,76,95,80,62,30.05,29.97,10,2,16,0.00
2013-8-24,91,83,77,79,77,74,96,82,63,30.14,30.01,10,2,20,0.35
2013-8-25,90,82,76,78,75,72,95,82,63,30.18,30.07,8,3,12,0.35
2013-8-26,90,80,73,78,75,72,98,86,63,30.15,30.05,13,2,18,1.52
2013-8-27,87,79,74,77,74,73,98,87,63,30.09,30.00,7,1,15,0.01
2013-8-28,89,81,76,77,75,73,97,83,64,30.07,29.98,8,1,12,0.39
2013-8-29,91,82,74,78,76,73,97,82,62,30.07,29.96,10,2,14,0.03
2013-8-30,93,84,77,77,76,71,96,77,52,30.04,29.93,11,2,14,0.00
2013-8-31,91,81,75,81,75,71,93,81,59,30.02,29.95,9,2,19,0.07
2013-9-1,92,81,75,78,76,72,98,84,58,30.03,29.96,8,1,13,0.07
2013-9-2,92,78,73,79,75,71,98,90,60,30.07,29.98,11,1,21,2.76
2013-9-3,92,80,74,78,73,-100,99,82,60,30.06,29.97,9,-10,11,0.01
2013-9-4,92,84,78,81,78,76,95,83,63,30.10,29.99,9,1,14,0.03
2013-9-5,91,85,80,79,78,76,93,79,61,30.11,30.03,9,2,13,0.00
2013-9-6,93,85,78,79,78,75,97,80,58,30.07,29.96,13,2,16,0.00
2013-9-7,88,79,75,78,75,71,96,88,70,30.02,29.94,13,2,14,0.08
2013-9-8,85,79,74,78,75,73,97,89,73,29.98,29.90,9,1,19,0.21
2013-9-9,90,82,74,77,75,72,97,81,64,30.04,29.93,12,3,15,0.21
2013-9-10,87,81,77,78,75,71,96,83,68,30.09,29.99,11,3,19,0.02
2013-9-11,84,79,74,77,75,72,96,87,73,30.10,30.01,8,2,14,0.60
2013-9-12,86,80,76,78,76,74,97,89,72,30.05,29.93,5,1,10,0.02
2013-9-13,91,81,74,79,76,73,98,85,66,29.94,29.84,8,1,11,0.06
2013-9-14,93,84,76,78,76,74,97,79,54,30.01,29.86,9,2,15,0.00
2013-9-15,87,80,74,79,76,72,98,88,76,30.10,29.96,11,2,21,1.15
2013-9-16,87,79,75,79,77,72,98,92,74,30.08,30.00,19,3,30,0.04
2013-9-17,80,77,72,77,75,71,99,93,86,30.08,29.96,13,2,22,0.01
2013-9-18,87,76,74,78,69,-100,98,86,73,30.05,29.95,8,-31,14,0.04
2013-9-19,86,78,74,78,74,72,99,90,75,30.04,29.96,9,2,16,0.13
2013-9-20,86,80,73,73,71,69,96,75,57,30.03,29.93,10,3,17,0.13
2013-9-21,89,80,72,75,73,71,95,79,61,29.95,29.82,7,1,11,0.00
2013-9-22,91,82,75,77,75,74,98,80,57,29.90,29.79,12,2,15,0.00
2013-9-23,86,81,77,79,77,76,98,88,73,30.02,29.89,7,1,12,0.31
2013-9-24,88,78,74,81,76,73,99,94,80,30.01,29.91,10,1,16,0.01
2013-9-25,86,79,74,79,74,72,98,86,64,29.94,29.82,10,2,18,0.01
2013-9-26,88,79,75,80,77,74,97,92,75,29.89,29.82,9,2,22,0.48
2013-9-27,86,80,73,77,74,68,98,83,57,29.96,29.85,8,2,14,0.15
2013-9-28,87,80,74,76,74,70,97,82,65,29.99,29.91,10,3,17,0.16
2013-9-29,88,80,72,74,72,70,97,75,58,30.00,29.92,9,2,13,0.00
2013-9-30,89,80,73,74,72,71,98,78,55,30.04,29.94,11,2,13,0.00
2013-10-1,88,82,76,76,73,72,91,75,61,30.07,29.99,11,3,15,0.00
2013-10-2,86,82,79,74,73,72,82,74,66,30.08,30.01,13,4,18,0.00
2013-10-3,88,82,77,75,74,70,86,76,60,30.09,29.99,12,3,14,0.00
2013-10-4,88,80,74,75,72,70,96,78,56,30.09,30.02,8,2,14,0.00
2013-10-5,89,80,72,75,73,71,97,80,60,30.07,29.97,9,2,14,0.00
2013-10-6,89,81,74,76,74,73,97,80,60,30.00,29.90,12,1,12,0.00
2013-10-7,88,78,73,76,74,71,98,87,62,29.93,29.84,12,2,26,0.34
2013-10-8,88,80,75,77,74,72,99,83,64,29.96,29.88,7,2,12,0.34
2013-10-9,82,77,72,76,73,70,96,89,79,30.02,29.93,12,3,16,0.00
2013-10-10,85,78,71,75,72,70,97,81,62,30.04,29.98,10,3,17,0.00
2013-10-11,85,77,70,72,69,67,97,77,59,30.05,29.98,8,2,13,0.00
2013-10-12,86,77,69,71,69,67,98,78,56,30.06,29.98,9,1,12,0.00
2013-10-13,85,77,72,71,68,64,95,75,52,30.09,30.00,10,2,16,0.00
2013-10-14,86,77,71,71,70,68,95,79,55,30.05,29.94,8,2,13,0.00
2013-10-15,86,77,71,73,71,70,96,83,63,29.99,29.90,9,2,12,0.00
2013-10-16,86,77,71,73,70,-100,98,81,59,29.98,29.92,7,-9,12,0.01
2013-10-17,88,79,72,74,72,70,97,79,57,30.00,29.93,6,1,15,0.00
2013-10-18,88,79,72,75,73,71,98,82,64,30.02,29.94,8,1,11,0.00
2013-10-19,90,82,73,76,74,72,97,78,56,29.99,29.91,10,2,16,0.00
2013-10-20,89,82,75,78,76,74,96,83,62,29.99,29.91,9,1,12,0.00
2013-10-21,90,82,75,79,76,74,98,83,68,30.03,29.93,9,2,16,0.00
2013-10-22,90,82,75,78,76,74,97,83,61,30.00,29.86,10,2,17,0.03
2013-10-23,85,79,75,76,73,69,95,83,67,29.99,29.85,12,2,15,0.00
2013-10-24,80,76,70,70,66,63,86,72,62,30.13,29.97,11,4,16,0.00
2013-10-25,81,74,66,66,65,63,88,73,57,30.19,30.11,15,4,20,0.00
2013-10-26,83,73,66,67,64,62,90,75,54,30.18,30.09,14,2,14,0.00
2013-10-27,82,73,65,68,65,61,92,76,59,30.13,30.06,8,2,15,0.00
2013-10-28,84,74,66,69,66,64,97,78,51,30.18,30.09,9,2,12,0.00
2013-10-29,84,76,67,71,68,64,96,77,57,30.21,30.12,16,4,22,0.00
2013-10-30,84,79,74,70,68,66,77,69,59,30.23,30.12,12,5,20,0.00
2013-10-31,86,80,76,74,71,67,86,74,63,30.15,30.03,11,4,19,0.00
2013-11-1,88,80,72,75,73,71,95,80,65,30.04,29.92,13,3,17,0.00
2013-11-2,88,78,71,74,71,63,98,79,52,29.97,29.83,8,2,14,0.00
2013-11-3,78,73,68,66,63,61,87,72,59,30.06,29.93,19,6,24,0.00
2013-11-4,79,76,70,69,64,59,81,67,57,30.12,30.05,17,7,25,0.03
2013-11-5,82,79,76,71,69,64,81,73,66,30.13,30.05,16,8,25,0.01
2013-11-6,84,78,70,70,69,67,94,74,60,30.11,30.03,11,4,23,0.00
2013-11-7,84,75,70,73,71,68,98,86,67,30.05,29.95,10,2,11,0.00
2013-11-8,83,75,70,73,71,68,96,88,66,30.08,29.98,17,5,22,0.59
2013-11-9,79,76,73,72,71,70,95,85,79,30.15,30.05,16,7,22,0.80
2013-11-10,83,79,77,73,71,69,83,77,68,30.16,30.08,10,4,15,0.00
2013-11-11,83,76,69,72,69,66,94,78,67,30.15,30.09,12,3,16,0.00
2013-11-12,84,76,69,71,68,66,96,79,58,30.12,30.00,8,2,11,0.00
2013-11-13,73,71,68,68,63,54,93,76,60,30.26,30.03,21,8,27,0.12
2013-11-14,76,72,68,62,59,55,73,63,57,30.28,30.18,18,7,23,0.00
2013-11-15,80,76,72,69,66,62,77,73,68,30.19,30.07,14,6,21,0.00
2013-11-16,80,76,71,73,71,67,96,83,71,30.13,30.05,10,3,15,0.41
2013-11-17,83,78,74,74,72,70,92,81,69,30.11,30.04,9,3,21,0.06
2013-11-18,84,76,70,74,72,69,98,88,71,30.06,29.95,6,1,9,0.03
2013-11-19,82,75,71,74,72,70,97,91,71,29.98,29.89,6,1,10,0.40
2013-11-20,84,75,68,75,72,68,99,89,73,30.09,29.96,7,1,10,0.01
2013-11-21,80,75,72,74,72,71,97,91,82,30.18,30.08,13,3,20,0.10
2013-11-22,82,77,75,72,70,69,85,79,70,30.20,30.11,15,5,21,0.10
2013-11-23,82,76,69,72,70,68,95,81,69,30.12,30.01,9,2,14,0.00
2013-11-24,78,72,68,70,68,65,97,86,70,30.19,30.02,18,6,24,0.02
2013-11-25,75,72,70,69,65,60,86,77,67,30.24,30.09,17,8,25,0.04
2013-11-26,82,77,72,75,73,69,93,86,76,30.09,29.86,15,6,23,0.08
2013-11-27,77,69,57,75,63,-100,98,83,66,30.16,29.82,15,-6,21,0.24
2013-11-28,73,61,46,60,53,44,92,75,53,30.29,30.16,16,5,18,0.00
2013-11-29,76,69,58,63,60,56,94,74,56,30.30,30.22,17,4,21,0.00
2013-11-30,77,69,61,70,63,59,97,83,65,30.26,30.14,13,4,23,0.46
2013-12-1,73,67,63,71,66,61,99,96,90,30.14,29.98,8,2,12,1.28
2013-12-2,70,66,61,68,64,60,99,94,80,29.98,29.86,8,2,10,0.10
2013-12-3,79,69,60,67,64,59,99,84,59,30.03,29.93,7,1,9,0.01
2013-12-4,82,72,64,70,67,64,99,84,66,30.13,30.02,8,1,12,0.00
2013-12-5,82,74,65,72,69,64,99,85,68,30.20,30.12,10,2,16,0.00
2013-12-6,82,76,67,71,70,66,95,80,65,30.22,30.13,12,4,18,0.00
2013-12-7,83,72,67,73,69,66,98,90,65,30.26,30.18,11,2,19,0.02
2013-12-8,83,77,73,73,70,68,90,80,63,30.25,30.16,10,3,16,0.03
2013-12-9,84,77,69,71,69,65,94,77,53,30.23,30.14,13,4,18,0.00
2013-12-10,85,76,69,74,71,67,97,85,65,30.20,30.11,9,1,13,0.00
2013-12-11,84,75,69,74,70,68,99,86,61,30.24,30.16,11,1,13,0.01
2013-12-12,75,71,67,70,66,60,99,86,67,30.26,30.17,14,5,23,0.01
2013-12-13,77,73,69,68,63,58,83,72,66,30.24,30.14,13,6,22,0.00
2013-12-14,81,77,73,73,71,68,92,83,72,30.15,30.02,14,5,21,0.03
2013-12-15,80,75,70,75,72,67,97,90,81,30.10,29.96,10,3,18,0.00
2013-12-16,72,66,60,67,61,58,93,84,70,30.20,30.08,9,4,14,0.00
2013-12-17,77,66,57,64,59,56,96,80,58,30.22,30.14,9,2,14,0.00
2013-12-18,73,65,58,60,58,55,96,80,59,30.28,30.18,11,3,15,0.01
2013-12-19,77,68,57,65,60,55,96,77,58,30.28,30.20,11,2,15,0.00
2013-12-20,80,75,69,70,67,62,83,77,68,30.23,30.14,12,3,18,0.00
2013-12-21,82,78,75,73,72,69,87,81,71,30.19,30.10,13,4,21,0.00
2013-12-22,83,78,76,73,72,71,89,82,68,30.20,30.11,16,6,21,0.00
2013-12-23,84,78,72,74,72,70,94,83,70,30.21,30.14,13,5,18,0.00
2013-12-24,80,70,67,73,67,61,99,89,75,30.21,30.13,12,4,23,0.12
2013-12-25,75,72,69,67,66,63,92,81,73,30.21,30.14,14,6,19,0.05
2013-12-26,78,74,71,70,69,66,87,83,76,30.20,30.10,9,3,14,0.05
2013-12-27,81,75,69,71,69,67,96,82,72,30.23,30.13,10,4,16,0.01
2013-12-28,79,76,74,72,70,67,92,82,78,30.22,30.07,17,6,21,0.04
2013-12-29,81,77,73,75,73,72,97,89,77,30.07,29.96,11,4,19,0.05
2013-12-30,76,71,68,72,69,65,98,92,81,30.18,30.01,6,2,13,0.01
2013-12-31,78,72,66,67,64,63,90,78,65,30.26,30.14,14,5,19,0.01
2014-1-1,80,76,73,73,70,65,93,83,75,30.23,30.08,12,5,21,0.00
2014-1-2,84,76,69,72,69,67,97,81,58,30.07,29.90,16,4,20,0.00